Time;durP1;ratioP1;P1;durP2;ratioP2;P2;SDS_P1;SDS_P2;PMS_P1;PMS_P2;Temp;Humidity;BMP_temperature;BMP_pressure;BME280_temperature;BME280_humidity;BME280_pressure;Samples;Min_cycle;Max_cycle;Signal;HPM_P1;HPM_P2
2021/06/15 00:00:14;;;;;;;1999.90;999.90;;;22.50;99.90;;;;;;5071871;28;20491;-82
2021/06/15 00:02:46;;;;;;;1999.90;999.90;;;22.50;99.90;;;;;;5079125;28;20409;-82
2021/06/15 00:05:24;;;;;;;1999.90;999.90;;;22.60;99.90;;;;;;5078617;28;20436;-83
2021/06/15 00:07:55;;;;;;;1999.90;999.90;;;22.60;99.90;;;;;;5078248;28;20493;-83
2021/06/15 00:10:30;;;;;;;1999.90;999.90;;;22.70;99.90;;;;;;5078500;28;20431;-83
2021/06/15 00:13:10;;;;;;;1999.90;999.90;;;22.60;99.90;;;;;;5079232;28;20426;-83
2021/06/15 00:16:58;;;;;;;;;;;;;;;;;;;;;
2021/06/15 00:19:59;;;;;;;1999.90;999.90;;;22.70;99.90;;;;;;5089535;22;20577;-85
2021/06/15 00:26:18;;;;;;;1999.90;999.90;;;22.60;99.90;;;;;;5040336;28;20404;-85
2021/06/15 00:32:46;;;;;;;;;;;;;;;;;;;;;
2021/06/15 00:36:00;;;;;;;;;;;;;;;;;;;;;
2021/06/15 00:50:27;;;;;;;1999.90;999.90;;;22.50;99.90;;;;;;4884690;29;20474;-86
2021/06/15 00:53:25;;;;;;;;;;;;;;;;;;;;;
2021/06/15 00:56:06;;;;;;;1999.90;999.90;;;22.50;99.90;;;;;;4895268;29;20500;-85
2021/06/15 00:59:16;;;;;;;1999.90;999.90;;;22.50;99.90;;;;;;4938491;29;20491;-85
2021/06/15 01:02:14;;;;;;;1999.90;999.90;;;22.50;99.90;;;;;;4927045;29;20467;-85
2021/06/15 01:05:05;;;;;;;;;;;;;;;;;;;;;
2021/06/15 01:12:02;;;;;;;1999.90;999.90;;;22.40;99.90;;;;;;5059150;28;20405;-85
2021/06/15 01:22:11;;;;;;;1999.90;999.90;;;22.20;99.90;;;;;;4998902;28;20537;-85
2021/06/15 01:33:07;;;;;;;1999.90;999.90;;;22.10;99.90;;;;;;4902283;29;20522;-85
2021/06/15 01:40:12;;;;;;;1999.90;999.90;;;22.10;99.90;;;;;;5003255;22;20504;-85
2021/06/15 01:50:10;;;;;;;1999.90;999.90;;;22.00;99.90;;;;;;5017652;28;20419;-85
2021/06/15 02:06:24;;;;;;;1999.90;999.90;;;21.80;99.90;;;;;;5022859;28;20422;-85
2021/06/15 02:12:08;;;;;;;1999.90;999.90;;;21.60;99.90;;;;;;5028610;28;20427;-85
2021/06/15 02:14:35;;;;;;;1999.90;999.90;;;21.60;99.90;;;;;;5059768;28;20408;-85
2021/06/15 02:22:03;;;;;;;;;;;;;;;;;;;;;
2021/06/15 02:25:03;;;;;;;1999.90;999.90;;;21.50;99.90;;;;;;4909585;29;20519;-85
2021/06/15 02:39:04;;;;;;;1999.90;999.90;;;21.40;99.90;;;;;;4905281;29;20441;-85
2021/06/15 02:45:46;;;;;;;;;;;;;;;;;;;;;
2021/06/15 02:59:13;;;;;;;1999.90;999.90;;;21.20;99.90;;;;;;4798313;26;20490;-85
2021/06/15 03:01:55;;;;;;;1999.90;999.90;;;21.20;99.90;;;;;;5063131;28;20454;-85
2021/06/15 03:05:05;;;;;;;;;;;;;;;;;;;;;
2021/06/15 03:16:00;;;;;;;;;;;;;;;;;;;;;
2021/06/15 03:27:36;;;;;;;;;;;;;;;;;;;;;
2021/06/15 03:31:01;;;;;;;;;;;;;;;;;;;;;
2021/06/15 03:33:58;;;;;;;1999.90;999.90;;;20.80;99.90;;;;;;5025509;28;20487;-85
2021/06/15 03:40:48;;;;;;;;;;;;;;;;;;;;;
2021/06/15 03:43:40;;;;;;;;;;;;;;;;;;;;;
2021/06/15 03:50:31;;;;;;;;;;;;;;;;;;;;;
2021/06/15 03:53:36;;;;;;;1999.90;999.90;;;20.70;99.90;;;;;;5084909;28;20538;-85
2021/06/15 03:57:02;;;;;;;1999.90;999.90;;;20.80;99.90;;;;;;5084306;28;20452;-85
2021/06/15 04:17:47;;;;;;;1999.90;999.90;;;20.90;99.90;;;;;;4888272;29;20408;-85
2021/06/15 04:20:55;;;;;;;1999.90;999.90;;;20.90;99.90;;;;;;4872065;29;20953;-85
2021/06/15 04:34:27;;;;;;;1999.90;999.90;;;21.00;99.90;;;;;;4944763;29;20912;-85
2021/06/15 04:44:50;;;;;;;;;;;;;;;;;;;;;
2021/06/15 04:48:08;;;;;;;1999.90;999.90;;;21.40;99.90;;;;;;5063477;28;20495;-85
2021/06/15 04:51:22;;;;;;;;;;;;;;;;;;;;;
2021/06/15 04:58:00;;;;;;;;;;;;;;;;;;;;;
2021/06/15 05:05:21;;;;;;;1999.90;999.90;;;21.30;99.90;;;;;;5021979;28;20488;-85
2021/06/15 05:08:04;;;;;;;1999.90;999.90;;;21.20;99.90;;;;;;5034210;28;20431;-85
2021/06/15 05:11:12;;;;;;;1999.90;999.90;;;21.20;99.90;;;;;;4985668;28;20410;-85
2021/06/15 05:14:37;;;;;;;1999.90;999.90;;;21.10;99.90;;;;;;5003750;28;20406;-85
2021/06/15 05:18:06;;;;;;;1999.90;999.90;;;21.00;1.00;;;;;;4990931;28;20431;-85
2021/06/15 05:24:40;;;;;;;1999.90;999.90;;;20.80;99.90;;;;;;4945744;29;20508;-85
2021/06/15 05:27:29;;;;;;;1999.90;999.90;;;20.50;1.00;;;;;;4907389;29;20414;-85
2021/06/15 05:40:38;;;;;;;1999.90;999.90;;;20.70;27.10;;;;;;5096981;23;20462;-85
2021/06/15 05:49:35;;;;;;;1999.90;999.90;;;20.60;96.30;;;;;;5044687;28;20522;-85
2021/06/15 05:52:07;;;;;;;1999.90;999.90;;;20.60;99.80;;;;;;5061866;28;20410;-85
2021/06/15 06:12:33;;;;;;;1999.90;999.90;;;20.80;99.70;;;;;;4905571;29;20409;-86
2021/06/15 06:18:35;;;;;;;;;;;;;;;;;;;;;
2021/06/15 06:43:13;;;;;;;1999.90;999.90;;;21.20;53.40;;;;;;3858273;26;20460;-85
2021/06/15 06:46:05;;;;;;;1999.90;999.90;;;21.20;94.40;;;;;;5074800;28;20807;-84
2021/06/15 06:49:06;;;;;;;;;;;;;;;;;;;;;
2021/06/15 06:55:56;;;;;;;1999.90;999.90;;;21.50;92.80;;;;;;5032825;28;20400;-84
2021/06/15 06:58:21;;;;;;;1999.90;999.90;;;21.50;99.40;;;;;;5051343;28;20459;-84
2021/06/15 07:01:47;;;;;;;1999.90;999.90;;;21.60;99.50;;;;;;5076898;28;20450;-85
2021/06/15 07:05:17;;;;;;;1999.90;999.90;;;21.70;99.90;;;;;;5070055;28;20424;-85
2021/06/15 07:11:53;;;;;;;1999.90;999.90;;;21.90;99.90;;;;;;5031346;28;20411;-83
2021/06/15 07:15:13;;;;;;;;;;;;;;;;;;;;;
2021/06/15 07:18:17;;;;;;;1999.90;999.90;;;21.80;99.90;;;;;;5066521;28;20412;-83
2021/06/15 07:21:29;;;;;;;1999.90;999.90;;;21.80;99.90;;;;;;5074398;28;20488;-83
2021/06/15 07:24:01;;;;;;;1999.90;999.90;;;21.80;99.90;;;;;;5077571;28;20596;-82
2021/06/15 07:27:17;;;;;;;1999.90;999.90;;;21.90;99.90;;;;;;5079865;28;20455;-82
2021/06/15 07:30:28;;;;;;;1999.90;999.90;;;21.90;99.90;;;;;;5077111;28;20563;-83
2021/06/15 08:32:06;;;;;;;1999.90;999.90;;;23.00;99.90;;;;;;3366202;26;20475;-83
2021/06/15 08:34:56;;;;;;;1999.90;999.90;;;23.00;99.90;;;;;;5040264;28;20397;-85
2021/06/15 08:38:03;;;;;;;1999.90;999.90;;;23.00;99.90;;;;;;5041282;28;20381;-83
2021/06/15 08:41:23;;;;;;;1999.90;999.90;;;23.00;99.90;;;;;;5018110;28;20436;-82
2021/06/15 08:43:51;;;;;;;1999.90;999.90;;;23.00;99.90;;;;;;5018628;28;20818;-82
2021/06/15 08:46:18;;;;;;;1999.90;999.90;;;23.10;99.90;;;;;;5018686;28;20405;-82
2021/06/15 08:48:54;;;;;;;1999.90;999.90;;;23.10;99.90;;;;;;5023914;28;20425;-83
2021/06/15 08:51:39;;;;;;;1999.90;999.90;;;23.10;99.90;;;;;;5020621;28;20451;-84
2021/06/15 08:54:20;;;;;;;1999.90;999.90;;;23.10;99.90;;;;;;5017448;28;20436;-83
2021/06/15 08:56:46;;;;;;;1999.90;999.90;;;23.30;99.90;;;;;;5032980;28;20482;-81
2021/06/15 08:59:42;;;;;;;1999.90;999.90;;;23.40;99.90;;;;;;5050153;22;20561;-82
2021/06/15 09:02:23;;;;;;;1999.90;999.90;;;23.40;99.90;;;;;;5057718;28;20557;-81
2021/06/15 09:05:29;;;;;;;1999.90;999.90;;;23.40;99.90;;;;;;5056940;28;20376;-81
2021/06/15 09:08:30;;;;;;;1999.90;999.90;;;23.60;99.40;;;;;;5054330;28;20402;-82
2021/06/15 09:11:10;;;;;;;1999.90;999.90;;;23.70;98.40;;;;;;5036001;28;20411;-83
2021/06/15 09:14:00;;;;;;;1999.90;999.90;;;23.80;98.70;;;;;;5037116;28;20736;-82
2021/06/15 09:16:55;;;;;;;1999.90;999.90;;;23.90;97.80;;;;;;5035761;28;20408;-81
2021/06/15 09:20:14;;;;;;;1999.90;999.90;;;24.00;96.60;;;;;;5036649;28;20938;-82
2021/06/15 09:22:40;;;;;;;1999.90;999.90;;;24.00;96.20;;;;;;5019811;28;20475;-82
2021/06/15 09:25:37;;;;;;;1999.90;999.90;;;24.20;93.30;;;;;;5037216;28;20408;-83
2021/06/15 09:28:55;;;;;;;1999.90;999.90;;;24.30;94.10;;;;;;5039300;28;20424;-81
2021/06/15 09:32:05;;;;;;;1999.90;999.90;;;24.30;94.70;;;;;;4993190;28;20921;-84
2021/06/15 09:34:57;;;;;;;1999.90;999.90;;;24.50;97.00;;;;;;4957653;29;20419;-82
2021/06/15 09:38:12;;;;;;;1999.90;999.90;;;24.60;93.10;;;;;;5015403;28;20390;-83
2021/06/15 09:40:55;;;;;;;1999.90;999.90;;;24.60;92.00;;;;;;5033404;28;20409;-83
2021/06/15 09:43:21;;;;;;;1999.90;999.90;;;24.80;91.20;;;;;;5036688;28;20415;-82
2021/06/15 09:45:58;;;;;;;1999.90;999.90;;;25.00;91.30;;;;;;5036264;28;20408;-83
2021/06/15 09:52:18;;;;;;;1999.90;999.90;;;25.30;91.50;;;;;;5036494;28;20967;-83
2021/06/15 09:55:04;;;;;;;1999.90;999.90;;;25.50;91.40;;;;;;5034849;28;20495;-83
2021/06/15 09:58:20;;;;;;;;;;;;;;;;;;;;;
2021/06/15 10:28:50;;;;;;;1999.90;999.90;;;26.40;62.40;;;;;;5033396;28;20415;-83
2021/06/15 10:35:57;;;;;;;;;;;;;;;;;;;;;
2021/06/15 10:42:47;;;;;;;1999.90;999.90;;;27.10;62.20;;;;;;4994523;28;20496;-83
2021/06/15 10:48:53;;;;;;;1999.90;999.90;;;27.30;46.30;;;;;;4955517;29;20863;-83
2021/06/15 10:51:43;;;;;;;1999.90;999.90;;;27.20;50.70;;;;;;4984110;28;20420;-83
2021/06/15 10:54:38;;;;;;;1999.90;999.90;;;27.40;48.70;;;;;;5024620;28;20890;-82
2021/06/15 10:57:28;;;;;;;1999.90;999.90;;;27.40;45.90;;;;;;5059920;28;20421;-83
2021/06/15 11:00:23;;;;;;;1999.90;999.90;;;27.60;48.60;;;;;;5059492;28;20827;-81
2021/06/15 11:03:17;;;;;;;1999.90;999.90;;;27.80;44.80;;;;;;5059217;28;20525;-83
2021/06/15 11:06:04;;;;;;;1999.90;999.90;;;28.10;44.00;;;;;;5058341;28;20491;-82
2021/06/15 11:08:31;;;;;;;1999.90;999.90;;;28.40;42.30;;;;;;5057126;28;20450;-83
2021/06/15 11:11:16;;;;;;;1999.90;999.90;;;28.40;31.50;;;;;;5058412;28;20435;-82
2021/06/15 11:13:56;;;;;;;1999.90;999.90;;;28.30;29.10;;;;;;5058882;28;20803;-83
2021/06/15 11:16:33;;;;;;;1999.90;999.90;;;28.40;24.80;;;;;;5058792;28;20388;-82
2021/06/15 11:19:11;;;;;;;1999.90;999.90;;;28.20;24.60;;;;;;5058394;28;20425;-83
2021/06/15 11:21:49;;;;;;;1999.90;999.90;;;28.10;23.20;;;;;;5059599;28;20485;-83
2021/06/15 11:24:19;;;;;;;1999.90;999.90;;;27.90;26.30;;;;;;5057654;28;20898;-82
2021/06/15 11:26:46;;;;;;;1999.90;999.90;;;27.90;28.80;;;;;;5057036;28;20407;-82
2021/06/15 11:29:38;;;;;;;1999.90;999.90;;;28.00;25.40;;;;;;5060089;28;20816;-83
2021/06/15 11:32:18;;;;;;;1999.90;999.90;;;28.00;24.20;;;;;;5063141;28;20899;-84
2021/06/15 11:34:58;;;;;;;1999.90;999.90;;;28.20;26.00;;;;;;5063316;28;20486;-83
2021/06/15 11:37:27;;;;;;;1999.90;999.90;;;28.30;25.10;;;;;;5062313;28;20403;-84
2021/06/15 11:40:15;;;;;;;1999.90;999.90;;;28.40;18.00;;;;;;5060480;28;20431;-84
2021/06/15 11:42:42;;;;;;;1999.90;999.90;;;28.60;18.60;;;;;;5061969;28;20434;-84
2021/06/15 11:45:34;;;;;;;1999.90;999.90;;;28.50;16.90;;;;;;5060662;28;20411;-83
2021/06/15 11:48:20;;;;;;;1999.90;999.90;;;28.60;16.40;;;;;;5062133;28;20416;-84
2021/06/15 11:50:49;;;;;;;1999.90;999.90;;;28.70;14.00;;;;;;5049807;28;20414;-83
2021/06/15 11:53:20;;;;;;;1999.90;999.90;;;28.80;14.00;;;;;;5061293;28;20415;-83
2021/06/15 11:55:59;;;;;;;1999.90;999.90;;;28.70;12.30;;;;;;5060278;28;20474;-82
2021/06/15 11:58:27;;;;;;;1999.90;999.90;;;28.70;12.00;;;;;;5058424;28;20465;-84
2021/06/15 12:01:07;;;;;;;1999.90;999.90;;;28.80;12.30;;;;;;5057277;28;20783;-83
2021/06/15 12:03:41;;;;;;;1999.90;999.90;;;28.90;12.60;;;;;;5055722;28;20467;-83
2021/06/15 12:06:09;;;;;;;1999.90;999.90;;;28.90;9.80;;;;;;5058130;28;20387;-82
2021/06/15 12:08:45;;;;;;;1999.90;999.90;;;29.00;9.40;;;;;;5058155;28;20483;-84
2021/06/15 12:11:16;;;;;;;1999.90;999.90;;;28.90;7.80;;;;;;5058036;28;20894;-82
2021/06/15 12:13:44;;;;;;;1999.90;999.90;;;28.60;6.30;;;;;;5058782;28;20398;-83
2021/06/15 12:23:54;;;;;;;1999.90;999.90;;;29.20;6.70;;;;;;5007641;28;20453;-84
2021/06/15 12:34:15;;;;;;;1999.90;999.90;;;29.40;2.00;;;;;;4928533;29;20428;-85
2021/06/15 12:37:18;;;;;;;1999.90;999.90;;;29.40;1.20;;;;;;4938760;28;20414;-85
2021/06/15 12:40:29;;;;;;;1999.90;999.90;;;29.20;1.00;;;;;;4971976;28;20513;-84
2021/06/15 12:47:24;;;;;;;;;;;;;;;;;;;;;
2021/06/15 12:54:15;;;;;;;1999.90;999.90;;;28.60;1.00;;;;;;4979589;28;20899;-83
2021/06/15 12:57:12;;;;;;;;;;;;;;;;;;;;;
2021/06/15 13:00:35;;;;;;;;;;;;;;;;;;;;;
2021/06/15 13:03:50;;;;;;;1999.90;999.90;;;29.10;1.00;;;;;;4998456;28;20484;-82
2021/06/15 13:07:03;;;;;;;1999.90;999.90;;;29.20;1.00;;;;;;4988928;28;20968;-84
2021/06/15 13:10:09;;;;;;;1999.90;999.90;;;29.10;1.00;;;;;;4989480;28;20430;-82
2021/06/15 13:13:46;;;;;;;;;;;;;;;;;;;;;
2021/06/15 13:17:11;;;;;;;;;;;;;;;;;;;;;
2021/06/15 13:30:11;;;;;;;1999.90;999.90;;;29.00;1.00;;;;;;4958859;28;20428;-83
2021/06/15 13:39:37;;;;;;;1999.90;999.90;;;29.20;1.00;;;;;;5076552;28;20437;-83
2021/06/15 13:42:15;;;;;;;1999.90;999.90;;;29.10;1.00;;;;;;5084542;28;20450;-83
2021/06/15 13:44:43;;;;;;;1999.90;999.90;;;28.90;1.00;;;;;;5086769;28;20452;-84
2021/06/15 13:51:42;;;;;;;1999.90;999.90;;;29.30;1.00;;;;;;5085001;28;20455;-84
2021/06/15 13:58:54;;;;;;;1999.90;999.90;;;29.20;1.00;;;;;;5086068;28;20436;-84
2021/06/15 14:04:54;;;;;;;1999.90;999.90;;;29.30;1.00;;;;;;5048693;28;20407;-84
2021/06/15 14:14:10;;;;;;;1999.90;999.90;;;29.50;1.00;;;;;;5084734;28;20449;-83
2021/06/15 14:17:11;;;;;;;1999.90;999.90;;;29.50;1.00;;;;;;5079962;28;20506;-83
2021/06/15 14:20:17;;;;;;;;;;;;;;;;;;;;;
2021/06/15 14:23:05;;;;;;;1999.90;999.90;;;29.30;1.00;;;;;;5083155;28;20536;-82
2021/06/15 14:26:25;;;;;;;1999.90;999.90;;;29.50;1.00;;;;;;5081313;28;20909;-83
2021/06/15 14:35:52;;;;;;;1999.90;999.90;;;29.30;1.00;;;;;;4946790;29;20405;-84
2021/06/15 14:38:53;;;;;;;;;;;;;;;;;;;;;
2021/06/15 14:41:38;;;;;;;1999.90;999.90;;;29.00;1.00;;;;;;5008617;28;20509;-85
2021/06/15 14:44:06;;;;;;;1999.90;999.90;;;29.20;1.00;;;;;;5009039;28;20402;-81
2021/06/15 14:46:34;;;;;;;1999.90;999.90;;;29.50;1.00;;;;;;5084437;28;20382;-82
2021/06/15 14:49:00;;;;;;;1999.90;999.90;;;29.60;1.00;;;;;;5086170;28;20414;-81
2021/06/15 14:51:26;;;;;;;1999.90;999.90;;;29.90;1.00;;;;;;5085881;28;20421;-82
2021/06/15 14:53:53;;;;;;;1999.90;999.90;;;30.00;1.00;;;;;;5084749;28;20406;-82
2021/06/15 14:56:22;;;;;;;1999.90;999.90;;;30.00;1.00;;;;;;5087506;28;20194;-81
2021/06/15 14:58:51;;;;;;;1999.90;999.90;;;30.00;1.00;;;;;;5087269;28;20921;-81
2021/06/15 15:01:17;;;;;;;1999.90;999.90;;;30.00;1.00;;;;;;5087376;28;20438;-81
2021/06/15 15:03:43;;;;;;;1999.90;999.90;;;30.20;1.00;;;;;;5086597;28;20443;-81
2021/06/15 15:06:08;;;;;;;1999.90;999.90;;;30.30;1.00;;;;;;5086980;28;20410;-81
2021/06/15 15:08:34;;;;;;;1999.90;999.90;;;30.50;1.00;;;;;;5084450;28;20210;-81
2021/06/15 15:11:00;;;;;;;1999.90;999.90;;;30.50;1.00;;;;;;5086968;28;20174;-85
2021/06/15 15:13:26;;;;;;;1999.90;999.90;;;30.60;1.00;;;;;;5088134;28;20180;-85
2021/06/15 15:15:52;;;;;;;1999.90;999.90;;;30.70;1.00;;;;;;5088425;28;20394;-85
2021/06/15 15:18:17;;;;;;;1999.90;999.90;;;30.80;1.00;;;;;;5087925;28;20427;-85
2021/06/15 15:20:43;;;;;;;1999.90;999.90;;;31.10;1.00;;;;;;5087896;28;20191;-86
2021/06/15 15:23:09;;;;;;;1999.90;999.90;;;31.20;1.00;;;;;;5087541;28;20179;-86
2021/06/15 15:25:35;;;;;;;1999.90;999.90;;;31.40;1.00;;;;;;5088911;28;20225;-85
2021/06/15 15:28:01;;;;;;;1999.90;999.90;;;31.30;1.00;;;;;;5087828;28;20195;-84
2021/06/15 15:30:26;;;;;;;1999.90;999.90;;;31.50;1.00;;;;;;5088666;28;20266;-85
2021/06/15 15:32:52;;;;;;;1999.90;999.90;;;31.60;1.00;;;;;;5088734;28;20405;-86
2021/06/15 15:35:21;;;;;;;1999.90;999.90;;;31.70;1.00;;;;;;5087840;28;20168;-85
2021/06/15 15:37:47;;;;;;;1999.90;999.90;;;31.90;1.00;;;;;;5089015;28;20164;-85
2021/06/15 15:40:17;;;;;;;1999.90;999.90;;;32.00;1.00;;;;;;5087102;28;20438;-85
2021/06/15 15:42:48;;;;;;;1999.90;999.90;;;32.40;1.00;;;;;;5088335;28;20434;-85
2021/06/15 15:45:15;;;;;;;1999.90;999.90;;;32.80;1.00;;;;;;5088900;28;20422;-85
2021/06/15 15:47:41;;;;;;;1999.90;999.90;;;33.40;1.00;;;;;;5087596;28;20421;-85
2021/06/15 15:50:11;;;;;;;1999.90;999.90;;;33.50;1.00;;;;;;5087635;28;20422;-85
2021/06/15 15:52:39;;;;;;;1999.90;999.90;;;33.70;1.00;;;;;;5087603;28;20406;-85
2021/06/15 15:55:06;;;;;;;1999.90;999.90;;;33.70;1.00;;;;;;5088075;28;20428;-85
2021/06/15 15:57:33;;;;;;;1999.90;999.90;;;34.00;1.00;;;;;;5089172;28;20405;-86
2021/06/15 16:00:00;;;;;;;1999.90;999.90;;;34.00;1.00;;;;;;5088411;28;20425;-85
2021/06/15 16:02:25;;;;;;;1999.90;999.90;;;34.20;1.00;;;;;;5087711;28;20441;-86
2021/06/15 16:04:51;;;;;;;1999.90;999.90;;;34.20;1.00;;;;;;5087341;28;20402;-85
2021/06/15 16:07:17;;;;;;;1999.90;999.90;;;34.10;1.00;;;;;;5087928;28;20160;-85
2021/06/15 16:09:42;;;;;;;1999.90;999.90;;;34.20;1.00;;;;;;5085894;28;20195;-86
2021/06/15 16:12:09;;;;;;;1999.90;999.90;;;34.40;1.00;;;;;;5087584;28;20160;-87
2021/06/15 16:14:35;;;;;;;1999.90;999.90;;;34.90;1.00;;;;;;5087335;28;20161;-86
2021/06/15 16:17:01;;;;;;;1999.90;999.90;;;35.10;1.00;;;;;;5086229;28;20494;-85
2021/06/15 16:19:26;;;;;;;1999.90;999.90;;;35.30;1.00;;;;;;5084491;28;20184;-87
2021/06/15 16:21:53;;;;;;;1999.90;999.90;;;35.40;1.00;;;;;;5081179;28;20186;-86
2021/06/15 16:24:19;;;;;;;1999.90;999.90;;;35.30;1.00;;;;;;5079483;28;20168;-86
2021/06/15 16:26:45;;;;;;;1999.90;999.90;;;34.70;1.00;;;;;;5079278;28;20402;-86
2021/06/15 16:29:10;;;;;;;1999.90;999.90;;;34.40;1.00;;;;;;5082181;28;20425;-86
2021/06/15 16:31:37;;;;;;;1999.90;999.90;;;34.40;1.00;;;;;;5077580;28;20258;-86
2021/06/15 16:34:03;;;;;;;1999.90;999.90;;;34.20;1.00;;;;;;5074412;28;20172;-86
2021/06/15 16:36:29;;;;;;;1999.90;999.90;;;34.60;1.00;;;;;;5079880;28;20441;-85
2021/06/15 16:38:55;;;;;;;1999.90;999.90;;;35.30;1.00;;;;;;5081657;28;20418;-85
2021/06/15 16:41:26;;;;;;;1999.90;999.90;;;35.50;1.00;;;;;;5081777;28;20446;-86
2021/06/15 16:43:52;;;;;;;1999.90;999.90;;;35.80;1.00;;;;;;5080741;28;20864;-86
2021/06/15 16:46:20;;;;;;;1999.90;999.90;;;35.70;1.00;;;;;;5081221;28;20479;-86
2021/06/15 16:48:47;;;;;;;1999.90;999.90;;;35.50;1.00;;;;;;5080288;28;20465;-85
2021/06/15 16:51:14;;;;;;;1999.90;999.90;;;35.60;1.00;;;;;;5079761;28;20411;-85
2021/06/15 16:53:40;;;;;;;1999.90;999.90;;;35.40;1.00;;;;;;5080658;28;20488;-86
2021/06/15 16:56:06;;;;;;;1999.90;999.90;;;35.50;1.00;;;;;;5079419;28;20410;-85
2021/06/15 16:58:40;;;;;;;1999.90;999.90;;;35.40;1.00;;;;;;5078798;28;20512;-85
2021/06/15 17:01:16;;;;;;;1999.90;999.90;;;35.30;1.00;;;;;;5075794;28;20278;-85
2021/06/15 17:03:54;;;;;;;1999.90;999.90;;;35.50;1.00;;;;;;5076546;28;20409;-86
2021/06/15 17:06:50;;;;;;;1999.90;999.90;;;35.50;1.00;;;;;;5076674;28;20520;-85
2021/06/15 17:09:19;;;;;;;1999.90;999.90;;;35.40;1.00;;;;;;5076081;28;20445;-85
2021/06/15 17:11:45;;;;;;;1999.90;999.90;;;35.20;1.00;;;;;;5076777;28;20410;-85
2021/06/15 17:14:10;;;;;;;1999.90;999.90;;;34.80;1.00;;;;;;5076531;28;20402;-86
2021/06/15 17:16:36;;;;;;;1999.90;999.90;;;34.50;1.00;;;;;;5073626;28;20184;-86
2021/06/15 17:19:45;;;;;;;1999.90;999.90;;;34.30;1.00;;;;;;5073887;28;20187;-89
2021/06/15 17:22:13;;;;;;;1999.90;999.90;;;34.10;1.00;;;;;;5051670;28;20219;-87
2021/06/15 17:24:39;;;;;;;1999.90;999.90;;;34.20;1.00;;;;;;5074299;28;20406;-86
2021/06/15 17:27:10;;;;;;;1999.90;999.90;;;34.20;1.00;;;;;;5075535;28;20905;-85
2021/06/15 17:29:38;;;;;;;1999.90;999.90;;;34.10;1.00;;;;;;5074768;28;20191;-85
2021/06/15 17:32:07;;;;;;;1999.90;999.90;;;34.10;1.00;;;;;;5076011;28;20410;-85
2021/06/15 17:34:32;;;;;;;1999.90;999.90;;;33.80;1.00;;;;;;5078375;28;20406;-85
2021/06/15 17:36:58;;;;;;;1999.90;999.90;;;33.70;1.00;;;;;;5080112;28;20406;-85
2021/06/15 17:39:24;;;;;;;1999.90;999.90;;;33.40;1.00;;;;;;5078850;28;20195;-84
2021/06/15 17:41:51;;;;;;;1999.90;999.90;;;33.10;1.00;;;;;;5080354;28;20188;-85
2021/06/15 17:44:16;;;;;;;1999.90;999.90;;;32.80;1.00;;;;;;5079020;28;20449;-85
2021/06/15 17:46:50;;;;;;;1999.90;999.90;;;32.70;1.00;;;;;;5078072;28;20394;-85
2021/06/15 17:49:43;;;;;;;1999.90;999.90;;;32.60;1.00;;;;;;5074484;28;20551;-84
2021/06/15 17:52:12;;;;;;;1999.90;999.90;;;32.60;1.00;;;;;;5073303;28;20430;-85
2021/06/15 17:54:55;;;;;;;1999.90;999.90;;;32.50;1.00;;;;;;5073662;28;20422;-85
2021/06/15 17:57:28;;;;;;;1999.90;999.90;;;32.50;1.00;;;;;;5078276;28;20513;-85
2021/06/15 17:59:56;;;;;;;1999.90;999.90;;;32.40;1.00;;;;;;5080900;28;20430;-85
2021/06/15 18:02:51;;;;;;;1999.90;999.90;;;32.10;1.00;;;;;;5077366;28;20445;-85
2021/06/15 18:08:05;;;;;;;1999.90;999.90;;;31.50;1.00;;;;;;5075481;28;20935;-85
2021/06/15 18:10:39;;;;;;;1999.90;999.90;;;31.10;1.00;;;;;;5075375;28;20438;-84
2021/06/15 18:13:10;;;;;;;1999.90;999.90;;;30.70;1.00;;;;;;5076764;28;20408;-85
2021/06/15 18:18:06;;;;;;;1999.90;999.90;;;30.20;1.00;;;;;;5032081;28;20494;-86
2021/06/15 18:20:32;;;;;;;1999.90;999.90;;;29.80;1.00;;;;;;5033158;28;20487;-86
2021/06/15 18:22:58;;;;;;;1999.90;999.90;;;29.60;1.00;;;;;;5032149;28;20590;-86
2021/06/15 18:25:25;;;;;;;1999.90;999.90;;;29.50;1.00;;;;;;5033410;28;20170;-86
2021/06/15 18:27:51;;;;;;;1999.90;999.90;;;29.40;1.00;;;;;;5032969;28;20172;-87
2021/06/15 18:30:20;;;;;;;1999.90;999.90;;;29.30;1.00;;;;;;5089000;23;20842;-87
2021/06/15 18:32:48;;;;;;;1999.90;999.90;;;29.10;1.00;;;;;;5051668;28;20415;-86
2021/06/15 18:35:15;;;;;;;1999.90;999.90;;;28.90;1.00;;;;;;5051539;28;20407;-86
2021/06/15 18:37:41;;;;;;;1999.90;999.90;;;28.80;1.00;;;;;;5053447;28;20413;-86
2021/06/15 18:40:08;;;;;;;1999.90;999.90;;;28.60;1.00;;;;;;5054198;28;20515;-86
2021/06/15 18:42:37;;;;;;;1999.90;999.90;;;28.70;1.00;;;;;;5053601;28;20445;-86
2021/06/15 18:45:04;;;;;;;1999.90;999.90;;;28.50;1.00;;;;;;5055412;28;20411;-86
2021/06/15 18:47:34;;;;;;;1999.90;999.90;;;28.50;1.00;;;;;;5056823;28;20400;-86
2021/06/15 18:50:13;;;;;;;1999.90;999.90;;;28.30;1.00;;;;;;5053725;28;20787;-86
2021/06/15 18:52:42;;;;;;;1999.90;999.90;;;28.10;1.00;;;;;;5056132;28;20403;-85
2021/06/15 18:55:12;;;;;;;1999.90;999.90;;;28.00;1.00;;;;;;5058791;28;20407;-86
2021/06/15 18:57:44;;;;;;;1999.90;999.90;;;28.00;1.00;;;;;;5054672;28;20407;-86
2021/06/15 19:00:11;;;;;;;1999.90;999.90;;;28.00;1.00;;;;;;5052939;28;20484;-86
2021/06/15 19:02:40;;;;;;;1999.90;999.90;;;27.90;1.00;;;;;;5053482;28;20446;-86
2021/06/15 19:05:08;;;;;;;1999.90;999.90;;;27.90;1.00;;;;;;5053386;28;20415;-86
2021/06/15 19:07:34;;;;;;;1999.90;999.90;;;27.90;1.00;;;;;;5051966;28;20839;-86
2021/06/15 19:10:08;;;;;;;1999.90;999.90;;;27.90;1.00;;;;;;5054002;28;20971;-86
2021/06/15 19:12:37;;;;;;;1999.90;999.90;;;27.80;1.00;;;;;;5053323;28;20384;-85
2021/06/15 19:15:05;;;;;;;1999.90;999.90;;;27.70;1.00;;;;;;5057652;28;20399;-85
2021/06/15 19:17:30;;;;;;;1999.90;999.90;;;27.60;1.00;;;;;;5057443;28;20403;-86
2021/06/15 19:19:56;;;;;;;1999.90;999.90;;;27.50;1.00;;;;;;5056354;28;20431;-86
2021/06/15 19:22:22;;;;;;;1999.90;999.90;;;27.40;1.00;;;;;;5056798;28;20205;-86
2021/06/15 19:24:48;;;;;;;1999.90;999.90;;;27.40;1.00;;;;;;5055450;28;20165;-86
2021/06/15 19:27:13;;;;;;;1999.90;999.90;;;27.30;1.00;;;;;;5056554;28;20694;-86
2021/06/15 19:29:39;;;;;;;1999.90;999.90;;;27.30;1.00;;;;;;5056336;28;20223;-86
2021/06/15 19:32:06;;;;;;;1999.90;999.90;;;27.20;1.00;;;;;;5059594;28;20169;-85
2021/06/15 19:34:35;;;;;;;1999.90;999.90;;;27.10;1.00;;;;;;5056451;28;20426;-86
2021/06/15 19:37:03;;;;;;;1999.90;999.90;;;27.10;1.00;;;;;;5056397;28;20415;-86
2021/06/15 19:39:29;;;;;;;1999.90;999.90;;;27.00;1.00;;;;;;5061104;28;20430;-86
2021/06/15 19:41:55;;;;;;;1999.90;999.90;;;26.90;1.00;;;;;;5057981;28;20434;-86
2021/06/15 19:44:21;;;;;;;1999.90;999.90;;;26.90;1.00;;;;;;5056281;28;20260;-86
2021/06/15 19:46:46;;;;;;;1999.90;999.90;;;26.80;1.00;;;;;;5056586;28;20435;-86
2021/06/15 19:49:13;;;;;;;1999.90;999.90;;;26.70;1.00;;;;;;5057999;28;20192;-85
2021/06/15 19:51:39;;;;;;;1999.90;999.90;;;26.70;1.00;;;;;;5059502;28;20620;-85
2021/06/15 19:54:07;;;;;;;1999.90;999.90;;;26.60;1.00;;;;;;5057554;28;20401;-85
2021/06/15 19:56:33;;;;;;;1999.90;999.90;;;26.60;1.00;;;;;;5058811;28;20160;-86
2021/06/15 19:58:59;;;;;;;1999.90;999.90;;;26.60;1.00;;;;;;5056849;28;20518;-85
2021/06/15 20:01:26;;;;;;;1999.90;999.90;;;26.60;1.00;;;;;;5059788;28;20471;-85
2021/06/15 20:03:51;;;;;;;1999.90;999.90;;;26.50;1.00;;;;;;5059293;28;20175;-85
2021/06/15 20:06:18;;;;;;;1999.90;999.90;;;26.50;1.00;;;;;;5056703;28;20767;-86
2021/06/15 20:08:44;;;;;;;1999.90;999.90;;;26.40;1.00;;;;;;5057202;28;20238;-86
2021/06/15 20:11:11;;;;;;;1999.90;999.90;;;26.40;1.00;;;;;;5055551;28;20410;-86
2021/06/15 20:13:39;;;;;;;1999.90;999.90;;;26.30;1.00;;;;;;5055860;28;20918;-86
2021/06/15 20:16:07;;;;;;;1999.90;999.90;;;26.30;1.00;;;;;;5056834;28;20406;-85
2021/06/15 20:18:34;;;;;;;1999.90;999.90;;;26.20;1.00;;;;;;5056781;28;20426;-86
2021/06/15 20:21:00;;;;;;;1999.90;999.90;;;26.20;1.00;;;;;;5054832;28;20411;-86
2021/06/15 20:23:29;;;;;;;1999.90;999.90;;;26.10;1.00;;;;;;5057210;28;20948;-86
2021/06/15 20:25:55;;;;;;;1999.90;999.90;;;26.00;1.00;;;;;;5056791;28;20171;-86
2021/06/15 20:28:20;;;;;;;1999.90;999.90;;;26.00;1.00;;;;;;5055754;28;20400;-86
2021/06/15 20:30:46;;;;;;;1999.90;999.90;;;25.90;1.00;;;;;;5058153;28;20241;-86
2021/06/15 20:33:12;;;;;;;1999.90;999.90;;;25.80;1.00;;;;;;5056814;28;20175;-86
2021/06/15 20:35:38;;;;;;;1999.90;999.90;;;25.80;1.00;;;;;;5056807;28;20174;-85
2021/06/15 20:38:09;;;;;;;1999.90;999.90;;;25.80;1.00;;;;;;5056836;28;20243;-86